createdAt,value
2022-11-03T00:01:45.938Z,98831.63
2022-11-03T00:04:15.625Z,98844.00
2022-11-03T00:06:45.216Z,98821.25
2022-11-03T00:09:14.727Z,98792.31
2022-11-03T00:11:44.336Z,98822.81
2022-11-03T00:14:15.652Z,98835.72
2022-11-03T00:16:44.223Z,98803.53
2022-11-03T00:19:13.724Z,98794.00
2022-11-03T00:21:41.750Z,98831.19
2022-11-03T00:24:10.119Z,98826.06
2022-11-03T00:26:38.599Z,98782.50
2022-11-03T00:29:09.585Z,98810.88
2022-11-03T00:31:41.142Z,98822.09
2022-11-03T00:34:09.812Z,98798.50
2022-11-03T00:36:39.508Z,98786.31
2022-11-03T00:39:08.207Z,98796.69
2022-11-03T00:41:36.157Z,98786.03
2022-11-03T00:44:04.292Z,98768.44
2022-11-03T00:46:35.164Z,98819.63
2022-11-03T00:49:05.936Z,98828.16
2022-11-03T00:51:36.153Z,98760.44
2022-11-03T00:54:05.827Z,98779.63
2022-11-03T00:56:35.332Z,98750.50
2022-11-03T00:59:05.019Z,98749.66
2022-11-03T01:01:40.556Z,98720.00
2022-11-03T01:04:30.707Z,98767.50
2022-11-03T01:07:01.165Z,98767.50
2022-11-03T01:09:33.187Z,98760.72
2022-11-03T01:12:02.179Z,98739.16
2022-11-03T01:14:33.537Z,98731.19
2022-11-03T01:17:01.963Z,98715.47
2022-11-03T01:19:31.308Z,98764.69
2022-11-03T01:21:59.520Z,98738.16
2022-11-03T01:24:27.725Z,98683.63
2022-11-03T01:26:55.668Z,98689.91
2022-11-03T01:29:23.594Z,98704.19
2022-11-03T01:31:51.548Z,98703.38
2022-11-03T01:34:22.163Z,98642.19
2022-11-03T01:36:51.484Z,98658.63
2022-11-03T01:39:20.811Z,98681.19
2022-11-03T01:41:50.582Z,98629.56
2022-11-03T01:44:31.343Z,98625.88
2022-11-03T01:47:04.322Z,98603.16
2022-11-03T01:49:37.939Z,98600.88
2022-11-03T01:52:12.942Z,98560.06
2022-11-03T01:54:44.292Z,98618.03
2022-11-03T01:57:21.209Z,98601.41
2022-11-03T01:59:49.887Z,98589.75
2022-11-03T02:02:25.413Z,98587.22
2022-11-03T02:04:54.794Z,98576.88
2022-11-03T02:07:29.309Z,98603.50
2022-11-03T02:09:57.406Z,98532.38
2022-11-03T02:12:25.632Z,98567.47
2022-11-03T02:14:57.607Z,98530.22
2022-11-03T02:17:28.686Z,98559.00
2022-11-03T02:20:01.356Z,98549.19
2022-11-03T02:22:46.099Z,98539.88
2022-11-03T02:25:20.049Z,98536.84
2022-11-03T02:27:50.008Z,98543.63
2022-11-03T02:30:17.993Z,98567.03
2022-11-03T02:33:04.649Z,98548.41
2022-11-03T02:35:39.107Z,98539.78
2022-11-03T02:38:13.410Z,98503.75
2022-11-03T02:40:47.084Z,98478.78
2022-11-03T02:43:18.436Z,98477.09
2022-11-03T02:45:49.140Z,98509.66
2022-11-03T02:48:19.243Z,98499.47
2022-11-03T02:50:48.926Z,98463.63
2022-11-03T02:53:17.706Z,98522.53
2022-11-03T02:55:54.580Z,98497.13
2022-11-03T02:58:28.243Z,98453.63
2022-11-03T03:01:01.967Z,98437.09
2022-11-03T03:03:33.720Z,98452.34
2022-11-03T03:06:06.334Z,98495.84
2022-11-03T03:08:36.751Z,98447.41
2022-11-03T03:11:07.116Z,98489.28
2022-11-03T03:13:36.581Z,98455.97
2022-11-03T03:16:12.756Z,98518.59
2022-11-03T03:18:51.098Z,98453.59
2022-11-03T03:21:24.665Z,98467.31
2022-11-03T03:23:58.688Z,98461.91
2022-11-03T03:26:31.639Z,98466.84
2022-11-03T03:29:05.609Z,98485.81
2022-11-03T03:31:39.307Z,98486.50
2022-11-03T03:34:23.595Z,98476.34
2022-11-03T03:36:59.919Z,98434.06
2022-11-03T03:39:32.532Z,98446.72
2022-11-03T03:42:03.923Z,98432.91
2022-11-03T03:44:35.417Z,98444.78
2022-11-03T03:47:08.445Z,98457.50
2022-11-03T03:49:36.549Z,98442.63
2022-11-03T03:52:05.398Z,98426.03
2022-11-03T03:54:33.612Z,98460.28
2022-11-03T03:57:04.129Z,98446.03
2022-11-03T03:59:33.759Z,98432.53
2022-11-03T04:02:03.162Z,98406.44
2022-11-03T04:04:31.313Z,98401.28
2022-11-03T04:07:13.177Z,98384.69
2022-11-03T04:09:41.217Z,98408.91
2022-11-03T04:12:26.957Z,98408.91
2022-11-03T04:15:25.357Z,98435.66
2022-11-03T04:18:10.906Z,98393.00
2022-11-03T04:20:56.292Z,98425.22
2022-11-03T04:23:24.279Z,98350.78
2022-11-03T04:25:55.844Z,98377.66
2022-11-03T04:28:24.167Z,98337.59
2022-11-03T04:30:58.950Z,98313.94
2022-11-03T04:33:27.665Z,98376.91
2022-11-03T04:35:59.108Z,98386.69
2022-11-03T04:38:28.600Z,98380.28
2022-11-03T04:40:58.580Z,98340.03
2022-11-03T04:43:34.172Z,98318.41
2022-11-03T04:46:04.087Z,98391.81
2022-11-03T04:48:32.676Z,98324.16
2022-11-03T04:51:03.126Z,98354.97
2022-11-03T04:53:34.218Z,98329.59
2022-11-03T04:56:07.232Z,98359.91
2022-11-03T04:58:37.058Z,98319.66
2022-11-03T05:01:13.612Z,98292.78
2022-11-03T05:03:43.572Z,98268.78
2022-11-03T05:06:15.448Z,98284.72
2022-11-03T05:08:45.307Z,98310.44
2022-11-03T05:11:20.521Z,98271.53
2022-11-03T05:13:49.154Z,98306.75
2022-11-03T05:16:19.108Z,98287.47
2022-11-03T05:18:51.122Z,98268.19
2022-11-03T05:21:22.082Z,98291.06
2022-11-03T05:23:55.903Z,98279.41
2022-11-03T05:26:27.963Z,98252.19
2022-11-03T05:29:00.631Z,98250.81
2022-11-03T05:31:32.229Z,98255.56
2022-11-03T05:34:02.540Z,98275.22
2022-11-03T05:36:32.360Z,98245.63
2022-11-03T05:39:06.411Z,98256.13
2022-11-03T05:41:36.100Z,98235.69
2022-11-03T05:44:17.404Z,98258.84
2022-11-03T05:46:46.843Z,98229.25
2022-11-03T05:49:14.994Z,98225.72
2022-11-03T05:51:46.216Z,98229.13
2022-11-03T05:54:22.209Z,98225.72
2022-11-03T05:56:51.052Z,98228.09
2022-11-03T05:59:24.144Z,98261.06
2022-11-03T06:01:55.047Z,98255.84
2022-11-03T06:04:28.077Z,98225.72
2022-11-03T06:06:59.950Z,98263.59
2022-11-03T06:09:28.440Z,98278.13
2022-11-03T06:11:59.932Z,98273.56
2022-11-03T06:14:31.108Z,98277.78
2022-11-03T06:17:05.862Z,98260.69
2022-11-03T06:19:39.249Z,98285.22
2022-11-03T06:22:13.460Z,98296.72
2022-11-03T06:24:41.549Z,98288.28
2022-11-03T06:27:13.795Z,98307.41
2022-11-03T06:29:41.993Z,98284.91
2022-11-03T06:32:14.451Z,98261.06
2022-11-03T06:34:46.590Z,98295.69
2022-11-03T06:37:21.872Z,98302.13
2022-11-03T06:39:50.748Z,98330.72
2022-11-03T06:42:24.651Z,98304.84
2022-11-03T06:44:54.851Z,98313.47
2022-11-03T06:47:26.854Z,98302.31
2022-11-03T06:49:57.647Z,98307.22
2022-11-03T06:52:28.274Z,98321.94
2022-11-03T06:55:02.612Z,98354.59
2022-11-03T06:57:36.258Z,98308.06
2022-11-03T07:00:33.086Z,98293.69
2022-11-03T07:03:10.453Z,98368.97
2022-11-03T07:05:39.981Z,98377.78
2022-11-03T07:08:18.831Z,98393.50
2022-11-03T07:10:47.178Z,98390.50
2022-11-03T07:13:19.544Z,98405.84
2022-11-03T07:15:47.805Z,98402.13
2022-11-03T07:18:23.916Z,98364.50
2022-11-03T07:20:54.899Z,98378.13
2022-11-03T07:23:25.834Z,98359.69
2022-11-03T07:25:55.475Z,98423.97
2022-11-03T07:28:30.270Z,98434.47
2022-11-03T07:31:00.683Z,98417.00
2022-11-03T07:33:32.701Z,98415.50
2022-11-03T07:36:15.592Z,98464.75
2022-11-03T07:38:44.956Z,98447.31
2022-11-03T07:41:18.556Z,98489.16
2022-11-03T07:43:52.620Z,98484.56
2022-11-03T07:46:23.279Z,98504.25
2022-11-03T07:48:55.597Z,98510.34
2022-11-03T07:51:26.736Z,98502.38
2022-11-03T07:53:58.016Z,98499.31
2022-11-03T07:56:28.556Z,98488.63
2022-11-03T07:59:01.965Z,98533.00
2022-11-03T08:01:32.616Z,98596.22
2022-11-03T08:04:05.638Z,98645.19
2022-11-03T08:06:34.222Z,98606.19
2022-11-03T08:09:02.408Z,98584.81
2022-11-03T08:11:30.672Z,98571.78
2022-11-03T08:14:02.263Z,98568.22
2022-11-03T08:16:30.387Z,98567.38
2022-11-03T08:18:58.569Z,98565.69
2022-11-03T08:21:28.377Z,98568.38
2022-11-03T08:23:56.720Z,98544.16
2022-11-03T08:26:24.831Z,98593.31
2022-11-03T08:28:53.254Z,98554.69
2022-11-03T08:31:21.541Z,98553.88
2022-11-03T08:33:55.895Z,98515.41
2022-11-03T08:36:33.591Z,98522.19
2022-11-03T08:39:08.542Z,98537.25
2022-11-03T08:41:50.486Z,98546.56
2022-11-03T08:44:26.043Z,98525.91
2022-11-03T08:46:54.712Z,98568.59
2022-11-03T08:49:26.348Z,98552.19
2022-11-03T08:51:57.123Z,98548.78
2022-11-03T08:54:27.910Z,98596.41
2022-11-03T08:57:01.508Z,98555.44
2022-11-03T08:59:30.080Z,98534.09
2022-11-03T09:01:59.210Z,98525.13
2022-11-03T09:04:27.896Z,98604.22
2022-11-03T09:07:02.514Z,98566.47
2022-11-03T09:12:20.952Z,98613.41
2022-11-03T09:14:51.123Z,98579.00
2022-11-03T09:17:27.770Z,98610.53
2022-11-03T09:19:59.318Z,98549.19
2022-11-03T09:22:43.066Z,98605.59
2022-11-03T09:25:18.356Z,98587.69
2022-11-03T09:27:56.978Z,98560.72
2022-11-03T09:30:25.816Z,98652.28
2022-11-03T09:33:13.775Z,98639.91
2022-11-03T09:35:52.119Z,98628.06
2022-11-03T09:38:28.509Z,98646.56
2022-11-03T09:41:09.696Z,98629.75
2022-11-03T09:43:58.165Z,98629.75
2022-11-03T09:46:28.191Z,98650.44
2022-11-03T09:48:57.832Z,98683.34
2022-11-03T09:51:32.936Z,98664.19
2022-11-03T09:54:07.456Z,98655.06
2022-11-03T09:56:38.682Z,98646.75
2022-11-03T09:59:20.271Z,98650.97
2022-11-03T10:01:56.064Z,98649.28
2022-11-03T10:04:28.837Z,98656.41
2022-11-03T10:06:58.755Z,98676.59
2022-11-03T10:09:33.051Z,98678.28
2022-11-03T10:12:05.106Z,98721.19
2022-11-03T10:14:36.151Z,98687.13
2022-11-03T10:17:06.910Z,98680.00
2022-11-03T10:19:43.685Z,98730.19
2022-11-03T10:22:16.647Z,98704.75
2022-11-03T10:24:47.027Z,98729.16
2022-11-03T10:27:28.416Z,98716.63
2022-11-03T10:30:09.211Z,98810.09
2022-11-03T10:32:41.649Z,98788.88
2022-11-03T10:35:36.835Z,98751.22
2022-11-03T10:38:31.893Z,98733.75
2022-11-03T10:41:14.280Z,98804.81
2022-11-03T10:44:02.888Z,98758.69
2022-11-03T10:49:25.024Z,98767.38
2022-11-03T10:52:09.559Z,98767.19
2022-11-03T10:54:39.501Z,98773.66
2022-11-03T10:57:09.430Z,98804.19
2022-11-03T10:59:39.693Z,98810.13
2022-11-03T11:02:17.627Z,98833.38
2022-11-03T11:04:50.518Z,98823.56
2022-11-03T11:07:26.768Z,98816.09
2022-11-03T11:09:55.752Z,98860.41
2022-11-03T11:12:27.210Z,98871.59
2022-11-03T11:14:58.398Z,98895.88
2022-11-03T11:17:49.434Z,98895.88
2022-11-03T11:20:34.817Z,98923.72
2022-11-03T11:23:47.152Z,98925.75
2022-11-03T11:26:34.349Z,98977.06
2022-11-03T11:29:38.169Z,98935.94
2022-11-03T11:32:52.233Z,98975.00
2022-11-03T11:36:05.834Z,99005.09
2022-11-03T11:38:55.887Z,99000.81
2022-11-03T11:42:10.004Z,98958.22
2022-11-03T11:44:57.779Z,98984.03
2022-11-03T11:47:29.085Z,98982.66
2022-11-03T11:50:23.301Z,98979.78
2022-11-03T11:52:57.527Z,98974.69
2022-11-03T11:55:32.509Z,98933.25
2022-11-03T11:58:02.850Z,98929.84
2022-11-03T12:00:33.896Z,98881.47
2022-11-03T12:03:03.641Z,98858.91
2022-11-03T12:05:33.177Z,98823.94
2022-11-03T12:08:01.729Z,98809.84
2022-11-03T12:10:40.179Z,98790.31
2022-11-03T12:13:52.595Z,98778.78
2022-11-03T12:16:33.442Z,98778.63
2022-11-03T12:19:50.529Z,98734.16
2022-11-03T12:22:42.896Z,98723.81
2022-11-03T12:25:35.033Z,98702.28
2022-11-03T12:28:03.126Z,98671.25
2022-11-03T12:30:33.328Z,98711.09
2022-11-03T12:33:06.591Z,98665.09
2022-11-03T12:35:34.707Z,98682.25
2022-11-03T12:38:02.728Z,98764.84
2022-11-03T12:40:30.653Z,98746.53
2022-11-03T12:42:58.541Z,98781.66
2022-11-03T12:45:26.561Z,98801.13
2022-11-03T12:47:57.634Z,98789.28
2022-11-03T12:50:27.641Z,98715.31
2022-11-03T12:52:55.612Z,98688.16
2022-11-03T12:55:23.612Z,98665.28
2022-11-03T12:58:05.798Z,98706.16
2022-11-03T13:01:01.794Z,98648.84
2022-11-03T13:03:31.758Z,98680.50
2022-11-03T13:06:02.518Z,98616.78
2022-11-03T13:08:30.513Z,98589.31
2022-11-03T13:10:59.543Z,98595.22
2022-11-03T13:13:28.083Z,98590.84
2022-11-03T13:15:56.280Z,98618.13
2022-11-03T13:21:07.755Z,98584.38
2022-11-03T13:23:35.832Z,98570.13
2022-11-03T13:26:03.831Z,98536.88
2022-11-03T13:28:32.179Z,98553.84
2022-11-03T13:31:00.190Z,98598.25
2022-11-03T13:33:28.107Z,98545.41
2022-11-03T13:35:56.293Z,98545.69
2022-11-03T13:38:25.736Z,98526.22
2022-11-03T13:40:59.224Z,98537.06
2022-11-03T13:43:39.557Z,98492.97
2022-11-03T13:46:07.528Z,98481.94
2022-11-03T13:51:23.356Z,98525.84
2022-11-03T13:59:29.035Z,98474.28
2022-11-03T14:04:45.557Z,98433.50
2022-11-03T14:07:38.336Z,98423.50
2022-11-03T14:10:08.625Z,98440.38
2022-11-03T14:12:36.803Z,98384.22
2022-11-03T14:15:07.000Z,98374.56
2022-11-03T14:17:34.987Z,98368.94
2022-11-03T14:20:04.801Z,98379.47
2022-11-03T14:22:33.814Z,98378.59
2022-11-03T14:25:02.097Z,98380.78
2022-11-03T14:27:31.383Z,98364.03
2022-11-03T14:29:59.417Z,98358.63
2022-11-03T14:32:40.964Z,98323.56
2022-11-03T14:35:10.199Z,98339.97
2022-11-03T14:37:38.661Z,98291.59
2022-11-03T14:40:08.109Z,98300.06
2022-11-03T14:42:36.497Z,98322.03
2022-11-03T14:45:04.582Z,98316.81
2022-11-03T14:47:32.567Z,98279.22
2022-11-03T14:50:00.547Z,98262.13
2022-11-03T14:52:28.580Z,98234.75
2022-11-03T14:54:56.514Z,98294.31
2022-11-03T14:57:24.449Z,98278.28
2022-11-03T14:59:53.956Z,98254.94
2022-11-03T15:02:22.056Z,98217.91
2022-11-03T15:04:50.076Z,98196.94
2022-11-03T15:07:18.001Z,98135.78
2022-11-03T15:09:45.907Z,98161.44
2022-11-03T15:12:14.319Z,98106.88
2022-11-03T15:14:42.346Z,98144.91
2022-11-03T15:17:11.675Z,98133.56
2022-11-03T15:19:39.620Z,97999.25
2022-11-03T15:22:07.745Z,97986.75
2022-11-03T15:27:23.645Z,97886.97
2022-11-03T15:29:51.586Z,97851.94
2022-11-03T15:32:20.977Z,97831.53
2022-11-03T15:34:48.960Z,97786.69
2022-11-03T15:37:17.083Z,97762.50
2022-11-03T15:39:45.148Z,97738.91
2022-11-03T15:42:13.129Z,97722.13
2022-11-03T15:44:41.013Z,97694.63
2022-11-03T15:47:08.993Z,97662.53
2022-11-03T15:49:38.341Z,97621.59
2022-11-03T15:52:06.612Z,97583.63
2022-11-03T15:54:38.449Z,97587.56
2022-11-03T15:57:09.666Z,97558.75
2022-11-03T15:59:38.427Z,97516.31
2022-11-03T16:02:14.050Z,97522.22
2022-11-03T16:04:56.207Z,97441.72
2022-11-03T16:07:24.284Z,97486.00
2022-11-03T16:09:52.160Z,97496.94
2022-11-03T16:12:20.107Z,97470.91
2022-11-03T16:14:48.044Z,97464.16
2022-11-03T16:17:15.939Z,97466.69
2022-11-03T16:19:43.875Z,97452.69
2022-11-03T16:22:13.299Z,97478.00
2022-11-03T16:24:41.770Z,97453.94
2022-11-03T16:27:09.779Z,97500.25
2022-11-03T16:29:37.715Z,97465.44
2022-11-03T16:32:05.616Z,97523.72
2022-11-03T16:34:33.551Z,97512.19
2022-11-03T16:37:01.824Z,97558.88
2022-11-03T16:39:31.092Z,97612.56
2022-11-03T16:41:59.139Z,97685.78
2022-11-03T16:44:27.585Z,97714.69
2022-11-03T16:46:55.467Z,97720.09
2022-11-03T16:49:23.454Z,97726.38
2022-11-03T16:51:51.494Z,97744.63
2022-11-03T16:54:19.452Z,97752.78
2022-11-03T16:56:54.323Z,97764.28
2022-11-03T16:59:24.317Z,97814.38
2022-11-03T17:01:52.448Z,97911.75
2022-11-03T17:04:20.681Z,97896.41
2022-11-03T17:06:55.139Z,97905.38
2022-11-03T17:09:23.191Z,97941.66
2022-11-03T17:11:52.536Z,97932.91
2022-11-03T17:14:20.466Z,97956.22
2022-11-03T17:16:48.717Z,97985.06
2022-11-03T17:19:16.937Z,97987.09
2022-11-03T17:21:44.861Z,98031.31
2022-11-03T17:24:13.385Z,98112.53
2022-11-03T17:26:52.360Z,98122.66
2022-11-03T17:29:25.525Z,98166.44
2022-11-03T17:31:53.464Z,98099.88
2022-11-03T17:34:27.592Z,98083.31
2022-11-03T17:36:59.760Z,98072.31
2022-11-03T17:39:34.149Z,98093.25
2022-11-03T17:42:15.966Z,98085.69
2022-11-03T17:44:49.486Z,98097.50
2022-11-03T17:47:18.533Z,98138.38
2022-11-03T17:49:48.845Z,98157.28
2022-11-03T17:52:26.700Z,98199.22
2022-11-03T17:55:04.492Z,98149.22
2022-11-03T17:57:32.584Z,98108.84
2022-11-03T18:00:08.009Z,98083.19
2022-11-03T18:02:41.383Z,98135.41
2022-11-03T18:05:24.015Z,98108.19
2022-11-03T18:07:54.785Z,98062.44
2022-11-03T18:10:27.474Z,98068.84
2022-11-03T18:13:18.151Z,98067.16
2022-11-03T18:16:00.655Z,98040.81
2022-11-03T18:18:32.605Z,98046.72
2022-11-03T18:21:04.971Z,98004.66
2022-11-03T18:23:37.145Z,97994.22
2022-11-03T18:26:20.503Z,98014.97
2022-11-03T18:28:55.484Z,97992.50
2022-11-03T18:31:34.690Z,98009.56
2022-11-03T18:34:07.216Z,97993.72
2022-11-03T18:36:37.866Z,98008.03
2022-11-03T18:39:09.990Z,97981.69
2022-11-03T18:41:43.920Z,98011.22
2022-11-03T18:44:16.255Z,98006.81
2022-11-03T18:46:49.010Z,97980.47
2022-11-03T18:49:17.205Z,97994.50
2022-11-03T18:51:49.604Z,97942.81
2022-11-03T18:54:32.917Z,97927.31
2022-11-03T18:57:03.506Z,97973.19
2022-11-03T18:59:37.583Z,97934.38
2022-11-03T19:02:17.993Z,97926.94
2022-11-03T19:04:48.793Z,97933.69
2022-11-03T19:07:22.731Z,97868.38
2022-11-03T19:10:03.758Z,97902.63
2022-11-03T19:12:38.805Z,97904.00
2022-11-03T19:15:08.796Z,97885.59
2022-11-03T19:17:40.982Z,97899.59
2022-11-03T19:20:14.728Z,97893.03
2022-11-03T19:22:55.802Z,97919.03
2022-11-03T19:25:24.105Z,97907.38
2022-11-03T19:27:52.305Z,97935.06
2022-11-03T19:30:20.978Z,97975.97
2022-11-03T19:33:20.230Z,97971.56
2022-11-03T19:35:57.912Z,98014.81
2022-11-03T19:38:26.002Z,98017.47
2022-11-03T19:41:17.739Z,98065.28
2022-11-03T19:43:48.177Z,98078.78
2022-11-03T19:46:22.642Z,98096.88
2022-11-03T19:48:57.947Z,98087.53
2022-11-03T19:51:25.991Z,98098.84
2022-11-03T19:53:59.682Z,98161.38
2022-11-03T19:56:30.315Z,98141.09
2022-11-03T19:59:00.791Z,98169.81
2022-11-03T20:01:33.353Z,98209.81
2022-11-03T20:04:05.064Z,98217.72
2022-11-03T20:06:39.000Z,98246.63
2022-11-03T20:09:08.547Z,98301.91
2022-11-03T20:11:39.057Z,98300.84
2022-11-03T20:14:07.120Z,98335.38
2022-11-03T20:16:35.385Z,98302.25
2022-11-03T20:19:10.886Z,98292.06
2022-11-03T20:21:45.427Z,98327.25
2022-11-03T20:24:23.510Z,98358.38
2022-11-03T20:26:53.422Z,98319.66
2022-11-03T20:29:21.417Z,98362.25
2022-11-03T20:31:51.871Z,98375.44
2022-11-03T20:34:26.654Z,98340.06
2022-11-03T20:36:54.884Z,98364.50
2022-11-03T20:39:24.184Z,98408.25
2022-11-03T20:41:54.319Z,98451.56
2022-11-03T20:44:23.939Z,98450.78
2022-11-03T20:46:55.352Z,98503.03
2022-11-03T20:49:32.175Z,98523.84
2022-11-03T20:52:00.335Z,98519.03
2022-11-03T20:54:32.572Z,98586.00
2022-11-03T20:57:19.449Z,98610.31
2022-11-03T20:59:49.321Z,98629.75
2022-11-03T21:02:19.421Z,98666.81
2022-11-03T21:05:28.091Z,98626.53
2022-11-03T21:07:56.745Z,98656.22
2022-11-03T21:10:25.175Z,98625.97
2022-11-03T21:12:54.082Z,98576.41
2022-11-03T21:15:52.356Z,98590.13
2022-11-03T21:18:46.280Z,98541.44
2022-11-03T21:21:20.941Z,98583.09
2022-11-03T21:23:55.351Z,98561.94
2022-11-03T21:26:25.387Z,98534.06
2022-11-03T21:28:53.401Z,98503.94
2022-11-03T21:31:23.565Z,98495.84
2022-11-03T21:33:55.785Z,98497.44
2022-11-03T21:36:26.468Z,98456.19
2022-11-03T21:38:54.349Z,98452.69
2022-11-03T21:44:29.013Z,98387.38
2022-11-03T21:46:56.945Z,98395.97
2022-11-03T21:49:49.077Z,98481.53
2022-11-03T21:52:33.577Z,98481.00
2022-11-03T21:55:02.956Z,98451.56
2022-11-03T21:57:30.863Z,98465.91
2022-11-03T21:59:59.262Z,98513.81
2022-11-03T22:02:30.225Z,98480.69
2022-11-03T22:05:23.164Z,98436.25
2022-11-03T22:07:53.564Z,98416.09
2022-11-03T22:10:24.093Z,98419.38
2022-11-03T22:12:56.522Z,98390.19
2022-11-03T22:15:41.958Z,98265.16
2022-11-03T22:18:12.393Z,98138.25
2022-11-03T22:20:58.407Z,97943.81
2022-11-03T22:23:53.753Z,97835.41
2022-11-03T22:26:39.198Z,97863.03
2022-11-03T22:29:26.574Z,97812.06
2022-11-03T22:31:54.446Z,97754.84
2022-11-03T22:34:39.668Z,97844.97
2022-11-03T22:37:07.489Z,97891.41
2022-11-03T22:39:56.734Z,97914.25
2022-11-03T22:42:45.052Z,97933.31
2022-11-03T22:45:33.032Z,97920.00
2022-11-03T22:48:13.052Z,97881.53
2022-11-03T22:50:41.434Z,97891.47
2022-11-03T22:53:23.383Z,97864.34
2022-11-03T22:55:53.459Z,97895.41
2022-11-03T22:58:29.414Z,97936.25
2022-11-03T23:00:58.367Z,97922.25
2022-11-03T23:03:26.413Z,97935.94
2022-11-03T23:05:58.523Z,97897.75
2022-11-03T23:11:10.523Z,97737.09
2022-11-03T23:13:38.488Z,97697.06
2022-11-03T23:16:21.453Z,97696.16
2022-11-03T23:19:09.058Z,97605.59
2022-11-03T23:21:46.038Z,97559.75
2022-11-03T23:27:15.445Z,97517.56
2022-11-03T23:29:44.777Z,97511.84
2022-11-03T23:32:12.851Z,97538.22
2022-11-03T23:34:40.785Z,97516.16
2022-11-03T23:37:08.725Z,97527.28
2022-11-03T23:39:36.794Z,97484.84
2022-11-03T23:42:07.184Z,97526.97
2022-11-03T23:44:50.405Z,97532.38
2022-11-03T23:47:37.842Z,97515.69
2022-11-03T23:50:06.658Z,97497.88
2022-11-03T23:52:34.689Z,97520.91
2022-11-03T23:58:20.621Z,97452.09
